sensor_id;sensor_type;location;lat;lon;timestamp;pressure;altitude;pressure_sealevel;temperature;humidity
59829;BME280;45708;51.848;107.620;2023-02-26T00:04:31;94897.88;;;-16.48;75.13
59829;BME280;45708;51.848;107.620;2023-02-26T00:09:31;94914.94;;;-16.53;75.67
59829;BME280;45708;51.848;107.620;2023-02-26T00:14:32;94888.59;;;-16.27;76.49
59829;BME280;45708;51.848;107.620;2023-02-26T00:19:33;94887.56;;;-16.23;74.59
59829;BME280;45708;51.848;107.620;2023-02-26T00:24:34;94826.13;;;-16.45;73.28
59829;BME280;45708;51.848;107.620;2023-02-26T00:29:35;94872.88;;;-15.02;71.25
59829;BME280;45708;51.848;107.620;2023-02-26T00:34:37;94914.78;;;-13.74;68.18
59829;BME280;45708;51.848;107.620;2023-02-26T00:39:51;94920.06;;;-12.82;70.33
59829;BME280;45708;51.848;107.620;2023-02-26T00:44:56;94871.03;;;-12.24;69.44
59829;BME280;45708;51.848;107.620;2023-02-26T00:50:20;94899.59;;;-10.77;69.00
59829;BME280;45708;51.848;107.620;2023-02-26T00:55:21;94882.44;;;-9.70;68.21
59829;BME280;45708;51.848;107.620;2023-02-26T01:00:23;94857.44;;;-8.55;64.04
59829;BME280;45708;51.848;107.620;2023-02-26T01:05:24;94856.03;;;-7.78;59.73
59829;BME280;45708;51.848;107.620;2023-02-26T01:10:25;94841.13;;;-7.51;59.10
59829;BME280;45708;51.848;107.620;2023-02-26T01:15:26;94909.25;;;-7.24;59.37
59829;BME280;45708;51.848;107.620;2023-02-26T01:20:36;94872.06;;;-7.99;57.75
59829;BME280;45708;51.848;107.620;2023-02-26T01:25:43;94919.25;;;-7.55;60.11
59829;BME280;45708;51.848;107.620;2023-02-26T01:30:47;94907.03;;;-7.07;58.02
59829;BME280;45708;51.848;107.620;2023-02-26T01:36:12;94928.13;;;-6.36;56.73
59829;BME280;45708;51.848;107.620;2023-02-26T01:41:26;94939.38;;;-6.59;56.55
59829;BME280;45708;51.848;107.620;2023-02-26T01:56:56;94727.03;;;-7.24;53.88
59829;BME280;45708;51.848;107.620;2023-02-26T02:02:07;94671.66;;;-7.92;53.80
59829;BME280;45708;51.848;107.620;2023-02-26T02:07:09;94859.00;;;-8.42;54.73
59829;BME280;45708;51.848;107.620;2023-02-26T02:17:39;94983.28;;;-9.49;57.32
59829;BME280;45708;51.848;107.620;2023-02-26T02:23:08;94943.16;;;-9.61;57.71
59829;BME280;45708;51.848;107.620;2023-02-26T02:33:44;94901.44;;;-10.00;57.26
59829;BME280;45708;51.848;107.620;2023-02-26T02:38:53;94801.88;;;-10.01;55.72
59829;BME280;45708;51.848;107.620;2023-02-26T02:43:59;94940.91;;;-9.02;57.24
59829;BME280;45708;51.848;107.620;2023-02-26T02:49:04;94876.91;;;-9.52;55.71
59829;BME280;45708;51.848;107.620;2023-02-26T02:54:12;94915.38;;;-9.53;57.46
59829;BME280;45708;51.848;107.620;2023-02-26T02:59:27;94936.31;;;-9.23;56.77
59829;BME280;45708;51.848;107.620;2023-02-26T03:04:28;94937.22;;;-9.24;57.26
59829;BME280;45708;51.848;107.620;2023-02-26T03:09:30;94733.63;;;-10.63;57.62
59829;BME280;45708;51.848;107.620;2023-02-26T03:14:44;94923.44;;;-9.34;57.61
59829;BME280;45708;51.848;107.620;2023-02-26T03:25:14;94898.03;;;-8.99;58.40
59829;BME280;45708;51.848;107.620;2023-02-26T03:30:21;94889.78;;;-8.78;57.71
59829;BME280;45708;51.848;107.620;2023-02-26T03:40:42;94890.13;;;-8.96;58.16
59829;BME280;45708;51.848;107.620;2023-02-26T03:45:48;94890.88;;;-8.70;57.90
59829;BME280;45708;51.848;107.620;2023-02-26T03:50:54;94761.25;;;-9.18;57.82
59829;BME280;45708;51.848;107.620;2023-02-26T03:56:12;94871.72;;;-8.40;57.50
59829;BME280;45708;51.848;107.620;2023-02-26T04:01:22;94858.75;;;-8.04;57.80
59829;BME280;45708;51.848;107.620;2023-02-26T04:06:23;94859.88;;;-7.61;57.80
59829;BME280;45708;51.848;107.620;2023-02-26T04:11:26;94843.00;;;-7.42;55.88
59829;BME280;45708;51.848;107.620;2023-02-26T04:16:27;94821.19;;;-7.81;56.71
59829;BME280;45708;51.848;107.620;2023-02-26T04:21:28;94714.53;;;-8.17;56.87
59829;BME280;45708;51.848;107.620;2023-02-26T04:26:29;94852.09;;;-7.26;56.75
59829;BME280;45708;51.848;107.620;2023-02-26T04:31:31;94842.06;;;-7.29;56.88
59829;BME280;45708;51.848;107.620;2023-02-26T04:36:32;94791.34;;;-7.37;57.01
59829;BME280;45708;51.848;107.620;2023-02-26T04:41:33;94815.22;;;-7.25;55.96
59829;BME280;45708;51.848;107.620;2023-02-26T04:46:34;94810.81;;;-7.46;56.88
59829;BME280;45708;51.848;107.620;2023-02-26T04:51:35;94813.84;;;-7.52;56.58
59829;BME280;45708;51.848;107.620;2023-02-26T04:56:36;94797.50;;;-7.62;57.07
59829;BME280;45708;51.848;107.620;2023-02-26T05:01:36;94788.19;;;-7.97;57.51
59829;BME280;45708;51.848;107.620;2023-02-26T05:06:37;94816.63;;;-7.77;57.67
59829;BME280;45708;51.848;107.620;2023-02-26T05:11:38;94777.69;;;-7.93;57.79
59829;BME280;45708;51.848;107.620;2023-02-26T05:16:39;94817.56;;;-7.11;57.03
59829;BME280;45708;51.848;107.620;2023-02-26T05:21:40;94817.00;;;-6.60;57.84
59829;BME280;45708;51.848;107.620;2023-02-26T05:26:41;94825.47;;;-6.17;57.17
59829;BME280;45708;51.848;107.620;2023-02-26T05:31:42;94769.38;;;-6.23;56.41
59829;BME280;45708;51.848;107.620;2023-02-26T05:36:44;94818.13;;;-5.79;54.44
59829;BME280;45708;51.848;107.620;2023-02-26T05:41:44;94806.75;;;-5.77;55.77
59829;BME280;45708;51.848;107.620;2023-02-26T05:46:45;94803.81;;;-5.63;54.88
59829;BME280;45708;51.848;107.620;2023-02-26T05:51:46;94808.47;;;-5.57;55.09
59829;BME280;45708;51.848;107.620;2023-02-26T05:56:47;94828.44;;;-5.70;54.15
59829;BME280;45708;51.848;107.620;2023-02-26T06:01:48;94829.16;;;-5.37;55.30
59829;BME280;45708;51.848;107.620;2023-02-26T06:06:48;94866.47;;;-4.92;55.17
59829;BME280;45708;51.848;107.620;2023-02-26T06:11:50;94769.94;;;-4.87;54.79
59829;BME280;45708;51.848;107.620;2023-02-26T06:16:51;94649.53;;;-5.34;55.14
59829;BME280;45708;51.848;107.620;2023-02-26T06:21:52;94786.81;;;-4.25;54.67
59829;BME280;45708;51.848;107.620;2023-02-26T06:26:54;94776.50;;;-4.25;54.73
59829;BME280;45708;51.848;107.620;2023-02-26T06:31:55;94794.41;;;-3.95;54.95
59829;BME280;45708;51.848;107.620;2023-02-26T06:36:56;94650.91;;;-4.91;55.30
59829;BME280;45708;51.848;107.620;2023-02-26T06:42:01;94697.78;;;-4.20;55.65
59829;BME280;45708;51.848;107.620;2023-02-26T06:47:02;94810.88;;;-3.49;55.01
59829;BME280;45708;51.848;107.620;2023-02-26T06:52:03;94798.06;;;-3.41;54.48
59829;BME280;45708;51.848;107.620;2023-02-26T06:57:04;94808.75;;;-2.89;54.35
59829;BME280;45708;51.848;107.620;2023-02-26T07:02:05;94680.41;;;-2.98;53.53
59829;BME280;45708;51.848;107.620;2023-02-26T07:07:06;94670.84;;;-2.27;51.35
59829;BME280;45708;51.848;107.620;2023-02-26T07:12:07;94811.25;;;-1.03;50.61
59829;BME280;45708;51.848;107.620;2023-02-26T07:17:09;94821.06;;;-0.89;49.61
59829;BME280;45708;51.848;107.620;2023-02-26T07:22:11;94571.31;;;-2.40;49.68
59829;BME280;45708;51.848;107.620;2023-02-26T07:27:15;94760.09;;;-1.35;49.15
59829;BME280;45708;51.848;107.620;2023-02-26T07:32:18;94686.47;;;-1.85;48.80
59829;BME280;45708;51.848;107.620;2023-02-26T07:37:19;94721.19;;;-1.69;48.13
59829;BME280;45708;51.848;107.620;2023-02-26T07:42:20;94851.88;;;-1.12;48.06
59829;BME280;45708;51.848;107.620;2023-02-26T07:47:21;94823.13;;;-1.27;48.05
59829;BME280;45708;51.848;107.620;2023-02-26T07:52:23;94566.41;;;-2.95;48.05
59829;BME280;45708;51.848;107.620;2023-02-26T07:57:25;94670.31;;;-2.30;48.25
59829;BME280;45708;51.848;107.620;2023-02-26T08:02:26;94737.31;;;-2.01;48.16
59829;BME280;45708;51.848;107.620;2023-02-26T08:07:29;94699.91;;;-2.51;48.59
59829;BME280;45708;51.848;107.620;2023-02-26T08:12:32;94775.63;;;-2.05;48.85
59829;BME280;45708;51.848;107.620;2023-02-26T08:17:33;94875.22;;;-1.38;48.94
59829;BME280;45708;51.848;107.620;2023-02-26T08:22:35;94870.09;;;-1.47;48.39
59829;BME280;45708;51.848;107.620;2023-02-26T08:27:36;94872.19;;;-1.51;48.65
59829;BME280;45708;51.848;107.620;2023-02-26T08:32:37;94885.66;;;-1.65;48.87
59829;BME280;45708;51.848;107.620;2023-02-26T08:37:38;94780.81;;;-2.40;49.01
59829;BME280;45708;51.848;107.620;2023-02-26T08:42:40;94841.97;;;-2.04;48.92
59829;BME280;45708;51.848;107.620;2023-02-26T08:47:41;94715.03;;;-2.91;49.10
59829;BME280;45708;51.848;107.620;2023-02-26T08:52:42;94913.63;;;-1.87;48.85
59829;BME280;45708;51.848;107.620;2023-02-26T08:57:47;94923.63;;;-1.92;49.67
59829;BME280;45708;51.848;107.620;2023-02-26T09:02:50;94792.66;;;-2.83;49.07
59829;BME280;45708;51.848;107.620;2023-02-26T09:07:52;94872.41;;;-2.33;50.10
59829;BME280;45708;51.848;107.620;2023-02-26T09:12:53;94841.59;;;-2.72;49.86
59829;BME280;45708;51.848;107.620;2023-02-26T09:17:59;94789.75;;;-2.98;49.89
59829;BME280;45708;51.848;107.620;2023-02-26T09:23:00;94652.38;;;-4.03;50.47
59829;BME280;45708;51.848;107.620;2023-02-26T09:28:01;94908.72;;;-2.53;50.83
59829;BME280;45708;51.848;107.620;2023-02-26T09:33:03;94673.63;;;-4.19;51.28
59829;BME280;45708;51.848;107.620;2023-02-26T09:38:04;94941.16;;;-2.68;51.25
59829;BME280;45708;51.848;107.620;2023-02-26T09:48:20;94764.78;;;-3.91;51.35
59829;BME280;45708;51.848;107.620;2023-02-26T09:53:31;94860.75;;;-3.39;51.71
59829;BME280;45708;51.848;107.620;2023-02-26T09:58:39;94858.31;;;-3.50;51.55
59829;BME280;45708;51.848;107.620;2023-02-26T10:15:07;94887.28;;;-3.95;52.31
59829;BME280;45708;51.848;107.620;2023-02-26T10:25:43;94829.31;;;-4.39;52.86
59829;BME280;45708;51.848;107.620;2023-02-26T10:30:53;95022.88;;;-3.04;52.92
59829;BME280;45708;51.848;107.620;2023-02-26T10:36:18;94857.94;;;-4.23;53.21
59829;BME280;45708;51.848;107.620;2023-02-26T10:41:25;94925.84;;;-3.64;52.91
59829;BME280;45708;51.848;107.620;2023-02-26T10:51:53;95025.75;;;-3.17;53.51
59829;BME280;45708;51.848;107.620;2023-02-26T10:57:01;95063.41;;;-2.95;53.25
59829;BME280;45708;51.848;107.620;2023-02-26T11:02:07;95069.13;;;-2.91;52.97
59829;BME280;45708;51.848;107.620;2023-02-26T11:07:13;95073.72;;;-2.85;52.93
59829;BME280;45708;51.848;107.620;2023-02-26T11:12:14;95085.69;;;-2.74;52.90
59829;BME280;45708;51.848;107.620;2023-02-26T11:17:29;95086.25;;;-2.71;53.52
59829;BME280;45708;51.848;107.620;2023-02-26T11:22:33;95075.66;;;-2.78;53.62
59829;BME280;45708;51.848;107.620;2023-02-26T11:27:37;95092.78;;;-2.77;54.74
59829;BME280;45708;51.848;107.620;2023-02-26T11:32:38;95091.16;;;-2.87;55.48
59829;BME280;45708;51.848;107.620;2023-02-26T11:37:41;95094.41;;;-2.76;56.18
59829;BME280;45708;51.848;107.620;2023-02-26T11:43:07;95110.47;;;-2.72;57.10
59829;BME280;45708;51.848;107.620;2023-02-26T11:48:14;95124.88;;;-2.69;57.90
59829;BME280;45708;51.848;107.620;2023-02-26T11:53:37;95138.47;;;-2.67;59.28
59829;BME280;45708;51.848;107.620;2023-02-26T11:58:44;95153.75;;;-2.74;60.93
59829;BME280;45708;51.848;107.620;2023-02-26T12:03:47;95157.66;;;-2.89;62.01
59829;BME280;45708;51.848;107.620;2023-02-26T12:08:49;95164.19;;;-3.14;63.15
59829;BME280;45708;51.848;107.620;2023-02-26T12:40:56;95201.91;;;-3.73;65.64
59829;BME280;45708;51.848;107.620;2023-02-26T12:46:07;95213.63;;;-3.69;65.88
59829;BME280;45708;51.848;107.620;2023-02-26T13:13:01;95239.97;;;-3.65;67.70
59829;BME280;45708;51.848;107.620;2023-02-26T13:23:52;95246.53;;;-3.82;69.62
59829;BME280;45708;51.848;107.620;2023-02-26T13:34:02;95249.66;;;-3.88;70.32
59829;BME280;45708;51.848;107.620;2023-02-26T13:44:51;95254.06;;;-3.79;71.24
59829;BME280;45708;51.848;107.620;2023-02-26T13:50:16;95252.66;;;-3.83;72.22
59829;BME280;45708;51.848;107.620;2023-02-26T13:55:45;95271.59;;;-3.73;72.18
59829;BME280;45708;51.848;107.620;2023-02-26T14:00:58;95295.97;;;-3.65;73.26
59829;BME280;45708;51.848;107.620;2023-02-26T14:06:22;95300.31;;;-3.66;74.04
59829;BME280;45708;51.848;107.620;2023-02-26T14:11:36;95306.94;;;-3.73;74.00
59829;BME280;45708;51.848;107.620;2023-02-26T14:16:42;95306.13;;;-3.74;74.52
59829;BME280;45708;51.848;107.620;2023-02-26T14:21:58;95318.25;;;-3.64;75.03
59829;BME280;45708;51.848;107.620;2023-02-26T14:33:07;95331.25;;;-3.76;75.94
59829;BME280;45708;51.848;107.620;2023-02-26T14:37:44;95323.75;;;-3.79;76.45
59829;BME280;45708;51.848;107.620;2023-02-26T14:42:57;95332.31;;;-3.78;77.28
59829;BME280;45708;51.848;107.620;2023-02-26T14:48:00;95337.69;;;-3.81;77.32
59829;BME280;45708;51.848;107.620;2023-02-26T15:08:41;95353.63;;;-3.97;78.49
59829;BME280;45708;51.848;107.620;2023-02-26T15:24:29;95366.47;;;-3.86;78.42
59829;BME280;45708;51.848;107.620;2023-02-26T15:29:33;95385.47;;;-3.87;78.25
59829;BME280;45708;51.848;107.620;2023-02-26T15:34:35;95380.66;;;-3.80;77.67
59829;BME280;45708;51.848;107.620;2023-02-26T15:39:36;95391.09;;;-3.82;77.61
59829;BME280;45708;51.848;107.620;2023-02-26T15:44:37;95389.66;;;-3.75;77.43
59829;BME280;45708;51.848;107.620;2023-02-26T15:49:41;95393.03;;;-3.95;77.92
59829;BME280;45708;51.848;107.620;2023-02-26T15:54:47;95392.84;;;-3.82;77.12
59829;BME280;45708;51.848;107.620;2023-02-26T15:59:51;95392.53;;;-3.89;77.35
59829;BME280;45708;51.848;107.620;2023-02-26T16:04:53;95396.88;;;-3.89;76.99
59829;BME280;45708;51.848;107.620;2023-02-26T16:09:54;95399.81;;;-3.94;76.95
59829;BME280;45708;51.848;107.620;2023-02-26T16:15:04;95412.47;;;-3.91;76.61
59829;BME280;45708;51.848;107.620;2023-02-26T16:20:13;95411.53;;;-3.90;76.35
59829;BME280;45708;51.848;107.620;2023-02-26T16:25:39;95416.44;;;-3.87;75.47
59829;BME280;45708;51.848;107.620;2023-02-26T16:30:43;95433.81;;;-3.89;74.99
59829;BME280;45708;51.848;107.620;2023-02-26T16:35:56;95431.88;;;-4.08;75.39
59829;BME280;45708;51.848;107.620;2023-02-26T16:41:08;95447.47;;;-3.98;74.14
59829;BME280;45708;51.848;107.620;2023-02-26T16:46:14;95456.16;;;-4.10;74.82
59829;BME280;45708;51.848;107.620;2023-02-26T16:51:20;95466.25;;;-4.07;74.34
59829;BME280;45708;51.848;107.620;2023-02-26T16:56:29;95466.25;;;-4.07;74.08
59829;BME280;45708;51.848;107.620;2023-02-26T17:06:55;95478.19;;;-4.06;73.56
59829;BME280;45708;51.848;107.620;2023-02-26T17:12:16;95505.75;;;-3.95;73.14
59829;BME280;45708;51.848;107.620;2023-02-26T17:17:19;95519.22;;;-4.03;71.95
59829;BME280;45708;51.848;107.620;2023-02-26T17:22:27;95521.34;;;-4.08;72.11
59829;BME280;45708;51.848;107.620;2023-02-26T17:27:49;95526.75;;;-4.11;72.31
59829;BME280;45708;51.848;107.620;2023-02-26T17:32:50;95526.44;;;-4.18;71.87
59829;BME280;45708;51.848;107.620;2023-02-26T17:37:51;95534.50;;;-4.22;71.89
59829;BME280;45708;51.848;107.620;2023-02-26T17:42:52;95547.41;;;-4.11;71.43
59829;BME280;45708;51.848;107.620;2023-02-26T17:47:53;95534.88;;;-4.16;71.78
59829;BME280;45708;51.848;107.620;2023-02-26T17:52:56;95543.31;;;-4.36;72.00
59829;BME280;45708;51.848;107.620;2023-02-26T17:57:57;95550.19;;;-4.48;71.79
59829;BME280;45708;51.848;107.620;2023-02-26T18:02:58;95555.81;;;-4.43;71.63
59829;BME280;45708;51.848;107.620;2023-02-26T18:07:59;95567.56;;;-4.50;70.82
59829;BME280;45708;51.848;107.620;2023-02-26T18:13:00;95582.78;;;-4.58;71.09
59829;BME280;45708;51.848;107.620;2023-02-26T18:18:01;95577.59;;;-4.69;69.87
59829;BME280;45708;51.848;107.620;2023-02-26T18:23:02;95584.84;;;-4.74;70.69
59829;BME280;45708;51.848;107.620;2023-02-26T18:28:03;95597.94;;;-4.88;70.76
59829;BME280;45708;51.848;107.620;2023-02-26T18:33:05;95597.44;;;-4.94;70.78
59829;BME280;45708;51.848;107.620;2023-02-26T18:38:07;95621.41;;;-4.80;69.45
59829;BME280;45708;51.848;107.620;2023-02-26T18:43:10;95643.38;;;-4.87;70.20
59829;BME280;45708;51.848;107.620;2023-02-26T18:48:17;95653.53;;;-4.97;69.17
59829;BME280;45708;51.848;107.620;2023-02-26T18:53:18;95658.16;;;-5.02;69.61
59829;BME280;45708;51.848;107.620;2023-02-26T18:58:20;95657.56;;;-5.06;69.37
59829;BME280;45708;51.848;107.620;2023-02-26T19:03:21;95667.59;;;-4.90;68.62
59829;BME280;45708;51.848;107.620;2023-02-26T19:08:22;95674.25;;;-4.99;68.24
59829;BME280;45708;51.848;107.620;2023-02-26T19:13:23;95678.66;;;-5.01;67.91
59829;BME280;45708;51.848;107.620;2023-02-26T19:18:24;95682.38;;;-5.16;68.09
59829;BME280;45708;51.848;107.620;2023-02-26T19:23:25;95698.75;;;-5.17;68.82
59829;BME280;45708;51.848;107.620;2023-02-26T19:28:26;95705.88;;;-5.21;68.29
59829;BME280;45708;51.848;107.620;2023-02-26T19:33:27;95714.13;;;-5.28;68.25
59829;BME280;45708;51.848;107.620;2023-02-26T19:38:28;95720.44;;;-5.45;69.36
59829;BME280;45708;51.848;107.620;2023-02-26T19:43:28;95730.44;;;-5.40;68.38
59829;BME280;45708;51.848;107.620;2023-02-26T19:48:29;95736.78;;;-5.33;68.06
59829;BME280;45708;51.848;107.620;2023-02-26T19:53:30;95751.84;;;-5.53;68.89
59829;BME280;45708;51.848;107.620;2023-02-26T19:58:32;95761.34;;;-5.40;67.51
59829;BME280;45708;51.848;107.620;2023-02-26T20:03:33;95768.94;;;-5.52;67.69
59829;BME280;45708;51.848;107.620;2023-02-26T20:08:33;95777.38;;;-5.62;68.80
59829;BME280;45708;51.848;107.620;2023-02-26T20:13:35;95792.94;;;-5.64;68.46
59829;BME280;45708;51.848;107.620;2023-02-26T20:18:36;95782.53;;;-5.62;68.58
59829;BME280;45708;51.848;107.620;2023-02-26T20:23:38;95811.59;;;-5.60;69.13
59829;BME280;45708;51.848;107.620;2023-02-26T20:28:39;95813.53;;;-5.64;68.63
59829;BME280;45708;51.848;107.620;2023-02-26T20:33:40;95825.16;;;-5.71;68.98
59829;BME280;45708;51.848;107.620;2023-02-26T20:38:41;95842.47;;;-5.73;67.27
59829;BME280;45708;51.848;107.620;2023-02-26T20:43:42;95839.16;;;-5.75;68.32
59829;BME280;45708;51.848;107.620;2023-02-26T20:48:43;95839.97;;;-5.74;67.26
59829;BME280;45708;51.848;107.620;2023-02-26T20:53:44;95847.69;;;-5.87;67.37
59829;BME280;45708;51.848;107.620;2023-02-26T20:58:45;95854.19;;;-5.94;67.50
59829;BME280;45708;51.848;107.620;2023-02-26T21:03:46;95859.75;;;-6.00;67.18
59829;BME280;45708;51.848;107.620;2023-02-26T21:08:47;95874.31;;;-6.01;66.47
59829;BME280;45708;51.848;107.620;2023-02-26T21:13:48;95863.19;;;-6.14;67.69
59829;BME280;45708;51.848;107.620;2023-02-26T21:18:49;95887.00;;;-6.25;66.90
59829;BME280;45708;51.848;107.620;2023-02-26T21:23:50;95884.09;;;-6.33;66.80
59829;BME280;45708;51.848;107.620;2023-02-26T21:28:50;95871.78;;;-6.28;66.57
59829;BME280;45708;51.848;107.620;2023-02-26T21:33:51;95889.53;;;-6.37;66.31
59829;BME280;45708;51.848;107.620;2023-02-26T21:38:52;95873.81;;;-6.33;66.10
59829;BME280;45708;51.848;107.620;2023-02-26T21:43:53;95875.47;;;-6.32;65.87
59829;BME280;45708;51.848;107.620;2023-02-26T21:48:54;95877.41;;;-6.35;65.98
59829;BME280;45708;51.848;107.620;2023-02-26T21:53:54;95897.34;;;-6.39;65.07
59829;BME280;45708;51.848;107.620;2023-02-26T21:58:55;95903.03;;;-6.34;64.43
59829;BME280;45708;51.848;107.620;2023-02-26T22:03:56;95905.81;;;-6.51;65.45
59829;BME280;45708;51.848;107.620;2023-02-26T22:08:57;95910.69;;;-6.61;65.18
59829;BME280;45708;51.848;107.620;2023-02-26T22:13:58;95912.53;;;-6.63;66.34
59829;BME280;45708;51.848;107.620;2023-02-26T22:18:58;95918.97;;;-6.84;66.47
59829;BME280;45708;51.848;107.620;2023-02-26T22:23:59;95916.31;;;-6.68;66.19
59829;BME280;45708;51.848;107.620;2023-02-26T22:29:00;95937.53;;;-6.93;65.44
59829;BME280;45708;51.848;107.620;2023-02-26T22:34:01;95923.47;;;-6.88;65.15
59829;BME280;45708;51.848;107.620;2023-02-26T22:39:03;95942.22;;;-7.00;66.17
59829;BME280;45708;51.848;107.620;2023-02-26T22:44:04;95942.94;;;-6.98;65.86
59829;BME280;45708;51.848;107.620;2023-02-26T22:49:05;95922.47;;;-7.14;65.03
59829;BME280;45708;51.848;107.620;2023-02-26T22:54:06;95953.75;;;-7.07;64.94
59829;BME280;45708;51.848;107.620;2023-02-26T22:59:07;95959.44;;;-7.16;66.10
59829;BME280;45708;51.848;107.620;2023-02-26T23:04:08;95958.44;;;-7.14;64.61
59829;BME280;45708;51.848;107.620;2023-02-26T23:09:09;95957.88;;;-7.05;64.29
59829;BME280;45708;51.848;107.620;2023-02-26T23:14:10;95966.22;;;-7.15;64.50
59829;BME280;45708;51.848;107.620;2023-02-26T23:19:11;95975.16;;;-7.22;64.14
59829;BME280;45708;51.848;107.620;2023-02-26T23:24:12;95985.44;;;-7.37;63.63
59829;BME280;45708;51.848;107.620;2023-02-26T23:29:13;95976.63;;;-7.32;63.40
59829;BME280;45708;51.848;107.620;2023-02-26T23:34:14;95995.66;;;-7.51;63.60
59829;BME280;45708;51.848;107.620;2023-02-26T23:39:14;96010.81;;;-7.62;63.55
59829;BME280;45708;51.848;107.620;2023-02-26T23:44:15;95993.03;;;-7.65;63.60
59829;BME280;45708;51.848;107.620;2023-02-26T23:49:16;96010.75;;;-7.60;62.88
59829;BME280;45708;51.848;107.620;2023-02-26T23:54:17;96020.16;;;-7.61;62.32
59829;BME280;45708;51.848;107.620;2023-02-26T23:59:18;96027.13;;;-7.63;61.84
